createdAt,value
2022-08-11T00:02:00.860Z,67.70
2022-08-11T00:04:34.577Z,68.05
2022-08-11T00:07:04.002Z,66.86
2022-08-11T00:09:39.454Z,67.24
2022-08-11T00:12:14.775Z,67.19
2022-08-11T00:14:42.994Z,67.36
2022-08-11T00:17:13.164Z,66.86
2022-08-11T00:20:13.044Z,68.28
2022-08-11T00:22:32.242Z,66.79
2022-08-11T00:25:08.926Z,66.44
2022-08-11T00:27:37.282Z,67.08
2022-08-11T00:30:06.588Z,66.57
2022-08-11T00:32:34.075Z,65.97
2022-08-11T00:35:51.968Z,66.26
2022-08-11T00:37:52.821Z,65.78
2022-08-11T00:40:30.467Z,65.37
2022-08-11T00:43:20.408Z,65.72
2022-08-11T00:46:11.404Z,65.31
2022-08-11T00:49:02.145Z,66.25
2022-08-11T00:51:56.761Z,67.26
2022-08-11T00:54:48.310Z,66.00
2022-08-11T00:57:37.007Z,66.39
2022-08-11T01:00:05.720Z,65.56
2022-08-11T01:02:47.711Z,65.92
2022-08-11T01:05:39.112Z,66.13
2022-08-11T01:08:35.282Z,65.52
2022-08-11T01:11:34.190Z,66.51
2022-08-11T01:14:40.236Z,65.36
2022-08-11T01:17:26.745Z,65.69
2022-08-11T01:20:45.970Z,65.61
2022-08-11T01:22:57.576Z,64.91
2022-08-11T01:25:57.157Z,65.20
2022-08-11T01:28:54.882Z,65.34
2022-08-11T01:31:36.516Z,65.58
2022-08-11T01:34:34.178Z,65.28
2022-08-11T01:37:31.675Z,65.84
2022-08-11T01:40:18.149Z,65.22
2022-08-11T01:43:02.102Z,66.01
2022-08-11T01:45:36.352Z,65.50
2022-08-11T01:48:15.697Z,65.22
2022-08-11T01:50:43.295Z,65.44
2022-08-11T01:53:39.907Z,65.76
2022-08-11T01:56:37.304Z,64.92
2022-08-11T01:59:19.138Z,65.81
2022-08-11T02:01:58.440Z,65.76
2022-08-11T02:04:47.022Z,65.58
2022-08-11T02:07:22.087Z,65.56
2022-08-11T02:10:36.554Z,64.92
2022-08-11T02:13:18.780Z,65.50
2022-08-11T02:16:13.539Z,65.48
2022-08-11T02:19:00.994Z,65.14
2022-08-11T02:21:51.432Z,65.18
2022-08-11T02:24:26.836Z,65.08
2022-08-11T02:27:07.498Z,65.19
2022-08-11T02:29:55.686Z,65.34
2022-08-11T02:32:50.655Z,64.86
2022-08-11T02:35:17.285Z,65.21
2022-08-11T02:38:00.301Z,65.39
2022-08-11T02:40:34.227Z,65.18
2022-08-11T02:43:02.071Z,64.91
2022-08-11T02:45:59.231Z,65.23
2022-08-11T02:48:56.257Z,65.17
2022-08-11T02:51:32.713Z,65.59
2022-08-11T02:54:21.558Z,65.58
2022-08-11T02:57:11.438Z,65.00
2022-08-11T02:59:53.497Z,65.15
2022-08-11T03:02:43.460Z,65.51
2022-08-11T03:05:12.117Z,65.78
2022-08-11T03:07:39.778Z,65.75
2022-08-11T03:10:29.855Z,65.71
2022-08-11T03:13:19.566Z,65.39
2022-08-11T03:16:22.150Z,66.40
2022-08-11T03:19:04.112Z,66.28
2022-08-11T03:22:03.153Z,66.46
2022-08-11T03:24:42.582Z,65.92
2022-08-11T03:27:38.279Z,66.59
2022-08-11T03:30:07.829Z,65.79
2022-08-11T03:33:11.756Z,65.91
2022-08-11T03:35:47.899Z,65.78
2022-08-11T03:38:15.917Z,65.66
2022-08-11T03:42:02.366Z,65.76
2022-08-11T03:44:31.315Z,66.76
2022-08-11T03:47:18.891Z,67.59
2022-08-11T03:50:00.751Z,68.42
2022-08-11T03:52:43.301Z,69.22
2022-08-11T03:55:27.644Z,69.77
2022-08-11T03:58:29.758Z,70.25
2022-08-11T04:01:32.521Z,70.51
2022-08-11T04:04:15.350Z,71.59
2022-08-11T04:07:05.594Z,71.79
2022-08-11T04:09:47.484Z,71.97
2022-08-11T04:12:35.915Z,72.13
2022-08-11T04:15:46.158Z,72.84
2022-08-11T04:18:48.040Z,73.50
2022-08-11T04:21:35.607Z,73.85
2022-08-11T04:24:39.524Z,74.04
2022-08-11T04:27:37.075Z,74.17
2022-08-11T04:30:33.020Z,73.96
2022-08-11T04:32:59.808Z,74.38
2022-08-11T04:35:55.223Z,73.85
2022-08-11T04:38:45.170Z,73.98
2022-08-11T04:42:06.788Z,73.92
2022-08-11T04:45:12.043Z,73.85
2022-08-11T04:48:24.548Z,73.93
2022-08-11T04:51:38.091Z,74.73
2022-08-11T04:54:28.813Z,74.15
2022-08-11T04:57:20.615Z,74.17
2022-08-11T05:00:20.864Z,75.00
2022-08-11T05:03:03.552Z,74.31
2022-08-11T05:05:54.610Z,74.57
2022-08-11T05:08:39.043Z,74.60
2022-08-11T05:11:36.239Z,74.30
2022-08-11T05:14:33.301Z,74.92
2022-08-11T05:17:24.578Z,74.61
2022-08-11T05:20:09.954Z,74.75
2022-08-11T05:22:55.173Z,74.45
2022-08-11T05:26:44.597Z,74.45
2022-08-11T05:28:50.156Z,75.15
2022-08-11T05:31:34.739Z,75.13
2022-08-11T05:34:23.961Z,74.32
2022-08-11T05:36:59.184Z,74.75
2022-08-11T05:39:59.611Z,74.31
2022-08-11T05:42:41.998Z,73.87
2022-08-11T05:45:29.329Z,73.47
2022-08-11T05:48:31.551Z,73.06
2022-08-11T05:51:16.499Z,72.91
2022-08-11T05:54:28.346Z,73.12
2022-08-11T05:56:59.993Z,73.01
2022-08-11T05:59:28.501Z,72.71
2022-08-11T06:02:02.771Z,72.91
2022-08-11T06:04:30.112Z,72.81
2022-08-11T06:06:59.743Z,72.53
2022-08-11T06:09:31.133Z,72.63
2022-08-11T06:12:01.590Z,72.95
2022-08-11T06:14:29.338Z,72.62
2022-08-11T06:16:59.867Z,71.88
2022-08-11T06:19:36.479Z,71.52
2022-08-11T06:22:05.489Z,71.45
2022-08-11T06:24:34.352Z,71.85
2022-08-11T06:27:12.271Z,72.04
2022-08-11T06:29:54.275Z,72.04
2022-08-11T06:32:25.724Z,71.76
2022-08-11T06:34:53.272Z,71.93
2022-08-11T06:37:35.817Z,71.36
2022-08-11T06:40:09.482Z,71.43
2022-08-11T06:42:45.126Z,70.24
2022-08-11T06:45:37.554Z,71.39
2022-08-11T06:48:06.643Z,70.38
2022-08-11T06:50:49.172Z,70.49
2022-08-11T06:53:19.371Z,69.84
2022-08-11T06:56:04.825Z,69.98
2022-08-11T06:58:56.356Z,69.64
2022-08-11T07:01:37.070Z,70.34
2022-08-11T07:04:08.330Z,68.88
2022-08-11T07:07:09.050Z,69.60
2022-08-11T07:10:16.448Z,70.26
2022-08-11T07:13:03.430Z,68.17
2022-08-11T07:16:12.275Z,67.88
2022-08-11T07:18:52.888Z,68.59
2022-08-11T07:22:00.873Z,67.63
2022-08-11T07:24:59.577Z,67.70
2022-08-11T07:27:51.524Z,67.13
2022-08-11T07:30:18.411Z,66.31
2022-08-11T07:32:52.872Z,66.65
2022-08-11T07:35:31.742Z,64.24
2022-08-11T07:38:05.780Z,64.59
2022-08-11T07:40:35.512Z,64.61
2022-08-11T07:43:04.180Z,63.34
2022-08-11T07:45:47.483Z,63.09
2022-08-11T07:48:31.565Z,62.10
2022-08-11T07:51:15.176Z,63.59
2022-08-11T07:54:03.077Z,62.33
2022-08-11T07:56:33.121Z,61.67
2022-08-11T07:59:57.504Z,61.59
2022-08-11T08:02:35.951Z,58.95
2022-08-11T08:05:18.159Z,60.55
2022-08-11T08:08:00.475Z,57.57
2022-08-11T08:10:43.287Z,57.78
2022-08-11T08:13:25.345Z,55.92
2022-08-11T08:16:08.900Z,57.20
2022-08-11T08:18:38.041Z,57.64
2022-08-11T08:21:14.696Z,56.99
2022-08-11T08:23:44.626Z,57.13
2022-08-11T08:26:29.977Z,56.03
2022-08-11T08:29:20.575Z,56.03
2022-08-11T08:31:49.572Z,57.36
2022-08-11T08:34:17.633Z,57.82
2022-08-11T08:36:47.489Z,54.77
2022-08-11T08:39:14.839Z,56.02
2022-08-11T08:41:43.736Z,55.97
2022-08-11T08:44:37.242Z,56.05
2022-08-11T08:47:06.111Z,56.28
2022-08-11T08:49:40.406Z,54.13
2022-08-11T08:52:25.323Z,55.80
2022-08-11T08:55:01.729Z,53.14
2022-08-11T08:57:39.122Z,54.23
2022-08-11T09:00:08.876Z,54.11
2022-08-11T09:02:39.746Z,54.16
2022-08-11T09:05:10.020Z,53.87
2022-08-11T09:07:39.567Z,52.58
2022-08-11T09:10:08.495Z,52.19
2022-08-11T09:12:38.970Z,52.79
2022-08-11T09:15:09.300Z,52.24
2022-08-11T09:17:41.249Z,53.58
2022-08-11T09:20:18.052Z,50.75
2022-08-11T09:23:54.613Z,51.79
2022-08-11T09:26:10.624Z,52.49
2022-08-11T09:28:37.726Z,50.43
2022-08-11T09:31:06.268Z,51.39
2022-08-11T09:33:33.545Z,51.88
2022-08-11T09:36:20.972Z,51.58
2022-08-11T09:39:03.770Z,52.30
2022-08-11T09:42:01.672Z,50.69
2022-08-11T09:44:33.741Z,50.92
2022-08-11T09:47:02.467Z,49.84
2022-08-11T09:49:30.165Z,51.06
2022-08-11T09:52:04.973Z,50.92
2022-08-11T09:54:32.060Z,51.06
2022-08-11T09:57:14.095Z,50.41
2022-08-11T09:59:41.499Z,49.77
2022-08-11T10:02:11.003Z,50.31
2022-08-11T10:04:42.049Z,50.79
2022-08-11T10:07:10.884Z,51.03
2022-08-11T10:10:01.445Z,48.71
2022-08-11T10:12:36.122Z,50.25
2022-08-11T10:15:23.350Z,50.85
2022-08-11T10:18:16.040Z,50.36
2022-08-11T10:20:45.229Z,49.92
2022-08-11T10:23:28.986Z,48.61
2022-08-11T10:26:12.337Z,50.13
2022-08-11T10:28:55.987Z,48.15
2022-08-11T10:31:55.448Z,48.91
2022-08-11T10:34:26.709Z,48.74
2022-08-11T10:36:57.303Z,50.53
2022-08-11T10:39:26.986Z,47.86
2022-08-11T10:42:18.280Z,49.40
2022-08-11T10:45:01.307Z,50.02
2022-08-11T10:47:35.996Z,49.87
2022-08-11T10:50:23.317Z,48.09
2022-08-11T10:53:06.636Z,49.23
2022-08-11T10:55:50.778Z,48.54
2022-08-11T10:58:33.843Z,48.29
2022-08-11T11:01:01.703Z,46.41
2022-08-11T11:03:31.064Z,47.50
2022-08-11T11:06:12.591Z,46.76
2022-08-11T11:09:09.553Z,46.38
2022-08-11T11:11:55.105Z,45.42
2022-08-11T11:14:46.210Z,44.68
2022-08-11T11:17:37.643Z,44.21
2022-08-11T11:20:06.872Z,43.08
2022-08-11T11:22:41.461Z,43.81
2022-08-11T11:25:38.586Z,43.48
2022-08-11T11:28:28.245Z,42.67
2022-08-11T11:31:15.714Z,43.26
2022-08-11T11:34:12.518Z,43.35
2022-08-11T11:36:49.440Z,42.96
2022-08-11T11:39:22.626Z,42.00
2022-08-11T11:41:53.162Z,42.28
2022-08-11T11:44:22.771Z,42.89
2022-08-11T11:46:50.957Z,41.09
2022-08-11T11:51:53.882Z,41.68
2022-08-11T11:54:24.401Z,40.68
2022-08-11T11:56:53.686Z,39.74
2022-08-11T11:59:38.471Z,39.99
2022-08-11T12:02:07.500Z,40.50
2022-08-11T12:04:42.945Z,40.00
2022-08-11T12:07:26.416Z,39.92
2022-08-11T12:09:53.912Z,38.97
2022-08-11T12:12:36.984Z,40.58
2022-08-11T12:15:05.194Z,40.08
2022-08-11T12:17:31.966Z,39.75
2022-08-11T12:19:59.040Z,39.10
2022-08-11T12:22:44.463Z,38.66
2022-08-11T12:25:26.715Z,38.78
2022-08-11T12:27:55.437Z,38.94
2022-08-11T12:30:22.867Z,37.67
2022-08-11T12:32:50.213Z,36.92
2022-08-11T12:35:17.074Z,36.07
2022-08-11T12:37:48.294Z,38.16
2022-08-11T12:40:42.518Z,39.03
2022-08-11T12:43:39.643Z,38.65
2022-08-11T12:46:12.469Z,37.88
2022-08-11T12:49:02.538Z,35.46
2022-08-11T12:52:01.432Z,37.29
2022-08-11T12:54:44.709Z,35.88
2022-08-11T12:57:36.434Z,37.49
2022-08-11T13:00:22.395Z,37.71
2022-08-11T13:03:05.150Z,37.34
2022-08-11T13:05:33.281Z,37.89
2022-08-11T13:08:08.323Z,36.72
2022-08-11T13:10:51.090Z,37.08
2022-08-11T13:13:52.587Z,38.41
2022-08-11T13:16:08.502Z,38.09
2022-08-11T13:18:35.518Z,37.60
2022-08-11T13:21:05.772Z,38.28
2022-08-11T13:23:33.048Z,37.64
2022-08-11T13:26:01.506Z,38.17
2022-08-11T13:28:28.445Z,38.73
2022-08-11T13:31:10.938Z,37.78
2022-08-11T13:33:43.512Z,37.43
2022-08-11T13:36:12.106Z,36.74
2022-08-11T13:38:43.581Z,36.47
2022-08-11T13:41:27.889Z,36.93
2022-08-11T13:43:55.932Z,37.76
2022-08-11T13:46:24.572Z,37.88
2022-08-11T13:49:00.615Z,36.05
2022-08-11T13:51:35.102Z,36.47
2022-08-11T13:54:09.041Z,36.19
2022-08-11T13:56:41.491Z,37.30
2022-08-11T13:59:09.351Z,38.00
2022-08-11T14:02:19.926Z,36.85
2022-08-11T14:04:33.660Z,36.73
2022-08-11T14:07:06.561Z,36.65
2022-08-11T14:09:37.719Z,36.51
2022-08-11T14:12:28.517Z,37.15
2022-08-11T14:15:07.573Z,36.30
2022-08-11T14:17:48.041Z,36.36
2022-08-11T14:20:40.183Z,36.43
2022-08-11T14:23:06.065Z,35.38
2022-08-11T14:26:00.790Z,35.96
2022-08-11T14:28:31.714Z,35.22
2022-08-11T14:31:03.176Z,35.65
2022-08-11T14:33:58.143Z,36.38
2022-08-11T14:36:24.235Z,36.64
2022-08-11T14:38:51.390Z,35.38
2022-08-11T14:41:34.135Z,37.65
2022-08-11T14:44:16.765Z,38.04
2022-08-11T14:46:59.302Z,36.27
2022-08-11T14:49:27.743Z,36.72
2022-08-11T14:51:57.170Z,36.24
2022-08-11T14:54:41.902Z,36.92
2022-08-11T14:57:09.672Z,36.56
2022-08-11T14:59:38.301Z,35.57
2022-08-11T15:02:21.392Z,37.20
2022-08-11T15:04:48.191Z,38.32
2022-08-11T15:07:17.205Z,38.04
2022-08-11T15:12:33.769Z,37.81
2022-08-11T15:15:17.058Z,38.29
2022-08-11T15:17:45.316Z,38.14
2022-08-11T15:20:33.469Z,38.35
2022-08-11T15:23:15.615Z,38.18
2022-08-11T15:25:46.464Z,36.68
2022-08-11T15:28:31.185Z,38.20
2022-08-11T15:31:14.792Z,36.47
2022-08-11T15:33:59.390Z,38.05
2022-08-11T15:36:44.779Z,37.50
2022-08-11T15:39:24.180Z,38.62
2022-08-11T15:42:22.086Z,37.23
2022-08-11T15:45:10.353Z,38.68
2022-08-11T15:47:44.560Z,38.52
2022-08-11T15:50:17.957Z,39.01
2022-08-11T15:52:58.414Z,35.70
2022-08-11T15:55:26.137Z,38.57
2022-08-11T15:58:10.645Z,37.13
2022-08-11T16:01:03.646Z,36.95
2022-08-11T16:04:07.769Z,39.21
2022-08-11T16:06:44.827Z,38.48
2022-08-11T16:09:18.520Z,39.63
2022-08-11T16:11:48.253Z,40.55
2022-08-11T16:14:32.941Z,40.57
2022-08-11T16:17:00.958Z,39.68
2022-08-11T16:19:34.847Z,40.18
2022-08-11T16:22:07.258Z,41.05
2022-08-11T16:27:05.883Z,40.20
2022-08-11T16:27:26.106Z,40.24
2022-08-11T16:29:55.268Z,40.07
2022-08-11T16:32:24.244Z,39.40
2022-08-11T16:35:12.989Z,40.15
2022-08-11T16:37:56.844Z,39.65
2022-08-11T16:40:24.461Z,39.72
2022-08-11T16:43:11.066Z,39.83
2022-08-11T16:45:55.776Z,39.78
2022-08-11T16:48:35.893Z,41.37
2022-08-11T16:51:07.269Z,40.58
2022-08-11T16:54:03.376Z,40.20
2022-08-11T16:56:30.150Z,40.13
2022-08-11T16:59:17.084Z,40.37
2022-08-11T17:01:53.483Z,39.64
2022-08-11T17:04:43.994Z,40.36
2022-08-11T17:07:42.453Z,40.50
2022-08-11T17:10:50.936Z,41.08
2022-08-11T17:13:25.951Z,40.83
2022-08-11T17:16:13.246Z,41.91
2022-08-11T17:19:02.908Z,41.33
2022-08-11T17:22:01.452Z,41.35
2022-08-11T17:24:31.580Z,40.61
2022-08-11T17:27:00.763Z,40.44
2022-08-11T17:29:29.362Z,40.15
2022-08-11T17:32:11.872Z,40.63
2022-08-11T17:34:57.464Z,40.85
2022-08-11T17:37:25.303Z,41.23
2022-08-11T17:39:53.949Z,41.27
2022-08-11T17:42:37.287Z,40.94
2022-08-11T17:45:21.086Z,41.08
2022-08-11T17:48:03.934Z,40.89
2022-08-11T17:50:31.225Z,41.18
2022-08-11T17:53:14.931Z,41.12
2022-08-11T17:55:58.193Z,41.52
2022-08-11T17:58:46.278Z,41.57
2022-08-11T18:01:14.171Z,42.11
2022-08-11T18:03:57.772Z,42.11
2022-08-11T18:06:32.589Z,42.18
2022-08-11T18:09:20.598Z,42.12
2022-08-11T18:12:10.683Z,42.62
2022-08-11T18:14:55.980Z,43.02
2022-08-11T18:17:38.107Z,43.52
2022-08-11T18:20:21.861Z,43.57
2022-08-11T18:23:05.448Z,43.07
2022-08-11T18:25:50.780Z,43.53
2022-08-11T18:28:38.248Z,44.63
2022-08-11T18:31:23.383Z,44.60
2022-08-11T18:34:08.424Z,43.72
2022-08-11T18:36:57.006Z,45.16
2022-08-11T18:39:40.537Z,45.13
2022-08-11T18:42:31.516Z,45.65
2022-08-11T18:45:17.728Z,46.57
2022-08-11T18:48:01.267Z,46.93
2022-08-11T18:50:44.052Z,47.48
2022-08-11T18:53:30.954Z,47.93
2022-08-11T18:56:14.808Z,48.43
2022-08-11T18:59:00.161Z,51.07
2022-08-11T19:01:46.129Z,51.37
2022-08-11T19:04:29.900Z,53.08
2022-08-11T19:07:17.369Z,52.22
2022-08-11T19:10:04.510Z,54.06
2022-08-11T19:12:55.306Z,55.22
2022-08-11T19:15:39.075Z,55.57
2022-08-11T19:18:22.706Z,56.28
2022-08-11T19:21:06.029Z,56.28
2022-08-11T19:23:51.873Z,55.83
2022-08-11T19:26:34.213Z,55.67
2022-08-11T19:30:12.036Z,55.31
2022-08-11T19:32:20.570Z,54.98
2022-08-11T19:35:03.902Z,54.60
2022-08-11T19:37:47.476Z,55.05
2022-08-11T19:40:31.089Z,54.84
2022-08-11T19:43:25.614Z,55.61
2022-08-11T19:46:12.063Z,55.46
2022-08-11T19:48:56.121Z,54.68
2022-08-11T19:51:40.076Z,55.11
2022-08-11T19:54:22.797Z,56.27
2022-08-11T19:57:05.652Z,56.42
2022-08-11T19:59:49.223Z,56.33
2022-08-11T20:02:31.829Z,56.28
2022-08-11T20:05:13.838Z,56.34
2022-08-11T20:07:56.355Z,57.21
2022-08-11T20:10:40.990Z,56.81
2022-08-11T20:13:25.076Z,57.71
2022-08-11T20:16:09.694Z,58.48
2022-08-11T20:18:53.296Z,58.42
2022-08-11T20:21:36.578Z,60.00
2022-08-11T20:24:18.922Z,60.66
2022-08-11T20:27:02.972Z,60.63
2022-08-11T20:29:50.561Z,60.40
2022-08-11T20:32:33.256Z,61.44
2022-08-11T20:35:16.572Z,58.74
2022-08-11T20:37:59.986Z,57.63
2022-08-11T20:40:43.202Z,57.69
2022-08-11T20:44:06.033Z,57.13
2022-08-11T20:46:35.522Z,57.68
2022-08-11T20:49:18.561Z,59.01
2022-08-11T20:52:06.230Z,57.57
2022-08-11T20:54:50.342Z,58.00
2022-08-11T20:57:50.474Z,58.76
2022-08-11T21:00:39.269Z,59.42
2022-08-11T21:03:35.885Z,59.51
2022-08-11T21:06:32.893Z,60.17
2022-08-11T21:09:19.939Z,60.60
2022-08-11T21:12:03.539Z,61.22
2022-08-11T21:14:49.842Z,60.10
2022-08-11T21:17:36.351Z,61.63
2022-08-11T21:20:39.145Z,62.16
2022-08-11T21:23:27.837Z,62.14
2022-08-11T21:26:17.729Z,62.33
2022-08-11T21:29:01.417Z,63.43
2022-08-11T21:31:47.035Z,62.63
2022-08-11T21:34:32.383Z,62.58
2022-08-11T21:37:16.905Z,63.65
2022-08-11T21:40:02.464Z,63.32
2022-08-11T21:42:47.783Z,61.95
2022-08-11T21:45:30.863Z,62.60
2022-08-11T21:48:13.890Z,62.23
2022-08-11T21:50:55.968Z,62.43
2022-08-11T21:53:39.028Z,61.22
2022-08-11T21:56:22.383Z,61.06
2022-08-11T21:59:09.775Z,61.45
2022-08-11T22:01:52.157Z,60.19
2022-08-11T22:04:35.684Z,60.03
2022-08-11T22:07:18.000Z,60.60
2022-08-11T22:10:00.312Z,59.74
2022-08-11T22:13:02.352Z,60.83
2022-08-11T22:15:44.341Z,61.72
2022-08-11T22:18:26.451Z,59.80
2022-08-11T22:21:09.681Z,60.50
2022-08-11T22:23:56.385Z,61.15
2022-08-11T22:26:39.656Z,60.28
2022-08-11T22:29:50.096Z,60.78
2022-08-11T22:32:27.579Z,61.25
2022-08-11T22:35:11.982Z,60.53
2022-08-11T22:37:55.024Z,60.62
2022-08-11T22:40:37.089Z,61.02
2022-08-11T22:43:19.112Z,61.06
2022-08-11T22:46:01.201Z,61.01
2022-08-11T22:48:45.764Z,61.57
2022-08-11T22:51:29.135Z,61.86
2022-08-11T22:54:12.917Z,61.32
2022-08-11T22:56:57.824Z,61.42
2022-08-11T22:59:40.367Z,61.16
2022-08-11T23:02:22.717Z,62.42
2022-08-11T23:05:05.748Z,62.50
2022-08-11T23:07:50.038Z,62.21
2022-08-11T23:10:34.196Z,62.51
2022-08-11T23:13:16.296Z,63.30
2022-08-11T23:16:04.989Z,66.29
2022-08-11T23:18:47.748Z,68.90
2022-08-11T23:21:31.110Z,69.42
2022-08-11T23:24:15.178Z,68.38
2022-08-11T23:26:57.236Z,68.68
2022-08-11T23:29:40.810Z,70.98
2022-08-11T23:32:22.880Z,71.42
2022-08-11T23:35:39.551Z,70.52
2022-08-11T23:38:14.368Z,69.49
2022-08-11T23:40:56.386Z,69.18
2022-08-11T23:43:39.762Z,68.77
2022-08-11T23:46:24.112Z,68.13
2022-08-11T23:49:11.012Z,67.63
2022-08-11T23:51:55.612Z,67.13
2022-08-11T23:54:37.762Z,66.20
2022-08-11T23:57:20.526Z,64.67
